Time;durP1;ratioP1;P1;durP2;ratioP2;P2;SDS_P1;SDS_P2;PMS_P1;PMS_P2;Temp;Humidity;BMP_temperature;BMP_pressure;BME280_temperature;BME280_humidity;BME280_pressure;Samples;Min_cycle;Max_cycle;Signal;HPM_P1;HPM_P2
2023/09/29 00:03:01;;;;;;;12.43;9.40;;;;;;;14.26;100.00;100971.19;5589526;31;33978;-68
2023/09/29 00:06:04;;;;;;;13.15;9.60;;;;;;;14.20;100.00;100963.88;5575525;31;33773;-67
2023/09/29 00:09:06;;;;;;;19.05;9.35;;;;;;;14.18;100.00;100967.75;5589546;31;34809;-69
2023/09/29 00:12:09;;;;;;;20.45;9.70;;;;;;;14.11;100.00;100964.12;5589255;31;33853;-67
2023/09/29 00:15:13;;;;;;;14.38;9.30;;;;;;;14.04;100.00;100971.19;5589293;31;34528;-67
2023/09/29 00:18:16;;;;;;;16.17;9.30;;;;;;;14.01;100.00;100968.84;5589178;31;33832;-68
2023/09/29 00:21:19;;;;;;;13.38;9.15;;;;;;;13.97;100.00;100970.22;5589176;31;34271;-68
2023/09/29 00:24:22;;;;;;;14.20;9.40;;;;;;;13.90;100.00;100967.41;5575743;31;34370;-68
2023/09/29 00:27:25;;;;;;;16.30;9.63;;;;;;;13.84;100.00;100973.44;5589455;31;33749;-67
2023/09/29 00:30:28;;;;;;;17.58;10.00;;;;;;;13.79;100.00;100970.47;5589026;31;33782;-68
2023/09/29 00:33:31;;;;;;;13.45;9.82;;;;;;;14.04;100.00;100969.31;5575637;31;35251;-67
2023/09/29 00:36:34;;;;;;;16.60;9.63;;;;;;;14.28;100.00;100963.03;5589084;31;34559;-67
2023/09/29 00:39:37;;;;;;;17.65;9.57;;;;;;;14.38;100.00;100968.97;5588833;31;34377;-68
2023/09/29 00:42:42;;;;;;;15.25;9.65;;;;;;;14.35;100.00;100970.13;5575221;31;33832;-68
2023/09/29 00:45:47;;;;;;;16.50;9.38;;;;;;;14.28;100.00;100968.34;5588572;31;34533;-68
2023/09/29 00:48:52;;;;;;;14.90;10.05;;;;;;;14.21;100.00;100954.03;5588367;31;33877;-67
2023/09/29 00:51:59;;;;;;;16.27;9.90;;;;;;;14.18;100.00;100957.91;5588760;31;33286;-68
2023/09/29 00:55:05;;;;;;;17.48;9.90;;;;;;;14.09;100.00;100964.28;5588772;31;33891;-67
2023/09/29 00:58:09;;;;;;;15.02;9.02;;;;;;;14.02;100.00;100970.50;5588683;31;34469;-68
2023/09/29 01:01:13;;;;;;;14.95;10.07;;;;;;;13.99;100.00;100961.00;5588514;31;33915;-68
2023/09/29 01:04:16;;;;;;;13.62;10.43;;;;;;;14.09;100.00;100964.28;5588562;31;33855;-67
2023/09/29 01:07:20;;;;;;;17.70;10.25;;;;;;;14.15;100.00;100958.25;5588582;31;34506;-67
2023/09/29 01:10:24;;;;;;;17.95;10.40;;;;;;;14.03;100.00;100969.50;5588355;31;33975;-68
2023/09/29 01:13:27;;;;;;;15.90;10.23;;;;;;;13.88;100.00;100964.09;5588648;31;34016;-68
2023/09/29 01:16:30;;;;;;;14.50;9.77;;;;;;;13.82;100.00;100960.28;5588417;31;33793;-68
2023/09/29 01:19:33;;;;;;;12.77;9.77;;;;;;;13.72;100.00;100959.66;5588568;31;33831;-68
2023/09/29 01:22:44;;;;;;;15.73;9.55;;;;;;;13.64;100.00;100962.37;5588231;31;33730;-68
2023/09/29 01:25:47;;;;;;;14.07;9.40;;;;;;;13.59;100.00;100967.41;5587987;31;34493;-68
2023/09/29 01:28:52;;;;;;;14.40;9.85;;;;;;;13.57;100.00;100963.22;5588122;31;34573;-68
2023/09/29 01:31:55;;;;;;;14.57;9.88;;;;;;;13.55;100.00;100957.25;5588042;31;33856;-68
2023/09/29 01:34:58;;;;;;;15.73;10.13;;;;;;;13.70;100.00;100960.84;5587830;31;33902;-68
2023/09/29 01:38:02;;;;;;;13.60;9.88;;;;;;;13.61;100.00;100954.69;5574360;31;33840;-68
2023/09/29 01:41:05;;;;;;;13.77;8.95;;;;;;;13.64;100.00;100966.88;5587746;31;34205;-68
2023/09/29 01:44:08;;;;;;;16.70;9.35;;;;;;;13.52;100.00;100961.06;5587687;31;34437;-68
2023/09/29 01:47:10;;;;;;;13.30;9.50;;;;;;;13.48;100.00;100957.09;5587817;31;34530;-68
2023/09/29 01:50:15;;;;;;;14.82;9.50;;;;;;;13.47;100.00;100953.59;5587651;31;33879;-68
2023/09/29 01:53:18;;;;;;;12.32;9.48;;;;;;;13.61;100.00;100960.03;5587899;31;34546;-68
2023/09/29 01:56:21;;;;;;;18.35;9.60;;;;;;;13.58;100.00;100960.41;5587553;31;33808;-68
2023/09/29 01:59:24;;;;;;;12.07;8.57;;;;;;;13.48;100.00;100959.75;5587545;31;34523;-68
2023/09/29 02:02:28;;;;;;;16.30;9.43;;;;;;;13.46;100.00;100959.09;5589976;31;33878;-68
2023/09/29 02:05:31;;;;;;;12.85;9.20;;;;;;;13.45;100.00;100971.63;5576805;31;33763;-69
2023/09/29 02:08:35;;;;;;;15.23;10.02;;;;;;;13.37;100.00;100960.13;5590417;31;33908;-68
2023/09/29 02:11:39;;;;;;;13.15;9.35;;;;;;;13.34;100.00;100965.81;5590594;31;34785;-69
2023/09/29 02:14:42;;;;;;;11.43;9.00;;;;;;;13.27;100.00;100954.16;5590777;31;33823;-68
2023/09/29 02:17:47;;;;;;;14.30;9.50;;;;;;;13.20;100.00;100959.37;5590380;31;34511;-69
2023/09/29 02:20:51;;;;;;;15.75;9.50;;;;;;;13.32;100.00;100957.16;5590389;31;33897;-69
2023/09/29 02:23:57;;;;;;;12.50;9.60;;;;;;;13.36;100.00;100963.81;5590329;31;33833;-68
2023/09/29 02:26:59;;;;;;;14.18;9.57;;;;;;;13.36;100.00;100963.81;5590589;31;33576;-68
2023/09/29 02:30:03;;;;;;;15.05;10.13;;;;;;;13.28;100.00;100954.00;5590199;31;34579;-68
2023/09/29 02:33:06;;;;;;;15.85;10.27;;;;;;;13.25;100.00;100957.03;5590201;31;34476;-68
2023/09/29 02:36:10;;;;;;;13.80;10.00;;;;;;;13.21;100.00;100954.88;5590133;31;33797;-68
2023/09/29 02:39:13;;;;;;;14.70;9.90;;;;;;;13.22;100.00;100960.00;5590204;31;33964;-68
2023/09/29 02:42:17;;;;;;;13.15;9.77;;;;;;;13.32;100.00;100962.47;5590361;31;34076;-68
2023/09/29 02:45:19;;;;;;;14.68;10.35;;;;;;;13.32;100.00;100959.81;5589794;31;34598;-68
2023/09/29 02:48:23;;;;;;;13.88;9.52;;;;;;;13.38;100.00;100959.13;5590097;31;34058;-68
2023/09/29 02:51:26;;;;;;;13.27;9.60;;;;;;;13.22;100.00;100951.19;5590023;31;33828;-68
2023/09/29 02:54:30;;;;;;;17.05;10.32;;;;;;;13.22;100.00;100954.69;5590019;31;34489;-69
2023/09/29 02:57:33;;;;;;;16.02;10.77;;;;;;;13.26;100.00;100958.69;5590018;31;34594;-68
2023/09/29 03:00:39;;;;;;;19.70;10.32;;;;;;;13.40;100.00;100960.62;5590003;31;33885;-68
2023/09/29 03:03:44;;;;;;;17.40;10.35;;;;;;;13.40;100.00;100960.62;5590191;31;34892;-68
2023/09/29 03:06:47;;;;;;;13.20;9.85;;;;;;;13.32;100.00;100955.31;5589846;31;34044;-68
2023/09/29 03:09:50;;;;;;;17.80;10.82;;;;;;;13.31;100.00;100958.97;5589973;31;33038;-68
2023/09/29 03:12:56;;;;;;;18.40;10.90;;;;;;;13.37;100.00;100950.31;5589542;31;34792;-69
2023/09/29 03:16:01;;;;;;;20.33;10.55;;;;;;;13.34;100.00;100953.31;5589745;31;33830;-68
2023/09/29 03:19:04;;;;;;;14.15;10.50;;;;;;;13.26;100.00;100955.19;5589773;31;34475;-69
2023/09/29 03:22:07;;;;;;;15.60;10.50;;;;;;;13.23;100.00;100953.69;5589829;31;33742;-68
2023/09/29 03:25:16;;;;;;;13.70;10.57;;;;;;;13.12;100.00;100959.37;5589589;31;33896;-68
2023/09/29 03:28:19;;;;;;;17.15;10.70;;;;;;;13.23;100.00;100953.69;5589743;31;34598;-68
2023/09/29 03:31:24;;;;;;;16.65;10.95;;;;;;;13.20;100.00;100951.38;5589901;31;33883;-69
2023/09/29 03:34:26;;;;;;;18.77;10.60;;;;;;;13.13;100.00;100949.53;5589676;31;33918;-68
2023/09/29 03:37:29;;;;;;;15.52;10.93;;;;;;;13.11;100.00;100946.19;5589652;31;33874;-69
2023/09/29 03:40:32;;;;;;;15.35;11.55;;;;;;;13.11;100.00;100957.72;5589647;31;34041;-69
2023/09/29 03:43:35;;;;;;;15.93;11.20;;;;;;;13.03;100.00;100958.53;5589863;31;34740;-69
2023/09/29 03:46:38;;;;;;;17.15;11.43;;;;;;;13.01;100.00;100954.38;5589285;31;33770;-69
2023/09/29 03:49:43;;;;;;;19.77;11.45;;;;;;;12.98;100.00;100963.53;5589514;31;34620;-69
2023/09/29 03:52:48;;;;;;;13.23;11.10;;;;;;;13.00;100.00;100963.38;5589490;31;33851;-69
2023/09/29 03:55:52;;;;;;;16.15;10.88;;;;;;;12.84;100.00;100958.87;5589493;31;34843;-69
2023/09/29 03:58:55;;;;;;;15.43;11.07;;;;;;;12.84;100.00;100963.38;5589450;31;33350;-71
2023/09/29 04:01:59;;;;;;;13.32;10.30;;;;;;;12.91;100.00;100967.03;5589454;31;34421;-69
2023/09/29 04:05:02;;;;;;;17.17;10.60;;;;;;;12.89;100.00;100964.53;5589309;31;34654;-69
2023/09/29 04:08:05;;;;;;;15.88;10.98;;;;;;;12.78;100.00;100970.19;5589426;31;33837;-69
2023/09/29 04:11:08;;;;;;;12.13;10.25;;;;;;;12.81;100.00;100971.72;5589683;31;34572;-71
2023/09/29 04:14:11;;;;;;;20.30;10.48;;;;;;;12.75;100.00;100972.37;5589193;31;34079;-70
2023/09/29 04:17:37;;;;;;;13.57;10.32;;;;;;;12.85;100.00;100970.38;5589203;31;33971;-69
2023/09/29 04:20:41;;;;;;;11.95;10.30;;;;;;;12.87;100.00;100968.38;5589234;31;34411;-69
2023/09/29 04:23:44;;;;;;;15.38;10.23;;;;;;;12.84;100.00;100976.69;5588457;31;33796;-69
2023/09/29 04:26:48;;;;;;;13.65;9.95;;;;;;;12.78;100.00;100980.03;5589082;31;34441;-69
2023/09/29 04:29:52;;;;;;;13.85;10.35;;;;;;;12.79;100.00;100971.03;5589048;31;34485;-69
2023/09/29 04:32:55;;;;;;;15.77;10.27;;;;;;;12.80;100.00;100970.03;5589106;31;34098;-69
2023/09/29 04:35:58;;;;;;;16.08;10.35;;;;;;;12.78;100.00;100985.38;5588865;31;33783;-69
2023/09/29 04:39:01;;;;;;;13.40;9.75;;;;;;;12.78;100.00;100980.84;5588938;31;33631;-69
2023/09/29 04:42:04;;;;;;;17.20;10.18;;;;;;;12.73;100.00;100983.19;5589073;31;34849;-69
2023/09/29 04:45:08;;;;;;;15.25;10.20;;;;;;;12.73;100.00;100985.03;5588252;31;34828;-69
2023/09/29 04:48:11;;;;;;;19.55;10.85;;;;;;;12.67;100.00;100988.34;5588820;31;34660;-69
2023/09/29 04:51:14;;;;;;;14.30;9.65;;;;;;;12.63;100.00;100990.53;5588843;31;33927;-69
2023/09/29 04:54:18;;;;;;;16.87;10.55;;;;;;;12.62;100.00;100995.03;5588609;31;34133;-69
2023/09/29 04:57:22;;;;;;;17.77;10.40;;;;;;;12.73;100.00;100996.50;5588823;31;34971;-69
2023/09/29 05:00:26;;;;;;;15.15;10.10;;;;;;;12.84;100.00;100993.50;5588792;31;33773;-69
2023/09/29 05:03:29;;;;;;;14.63;9.98;;;;;;;12.92;100.00;100990.84;5588635;31;34133;-69
2023/09/29 05:06:32;;;;;;;17.80;9.82;;;;;;;13.00;100.00;101000.66;5574643;31;34554;-69
2023/09/29 05:09:35;;;;;;;15.52;10.48;;;;;;;13.06;100.00;101002.66;5588364;31;33814;-70
2023/09/29 05:12:38;;;;;;;18.12;10.75;;;;;;;13.08;100.00;100997.97;5574662;31;34580;-69
2023/09/29 05:15:41;;;;;;;20.15;11.12;;;;;;;13.12;100.00;100996.66;5587967;31;34662;-69
2023/09/29 05:18:45;;;;;;;16.27;10.55;;;;;;;13.24;100.00;101007.81;5574336;31;33804;-69
2023/09/29 05:21:48;;;;;;;16.92;10.00;;;;;;;13.30;100.00;100999.97;5587980;31;34378;-70
2023/09/29 05:24:53;;;;;;;16.77;10.13;;;;;;;13.32;100.00;101008.62;5588101;31;34567;-69
2023/09/29 05:27:56;;;;;;;19.92;10.38;;;;;;;13.36;100.00;101004.59;5574510;31;33827;-70
2023/09/29 05:30:59;;;;;;;17.25;10.57;;;;;;;13.41;100.00;101010.25;5587830;31;33810;-69
2023/09/29 05:34:02;;;;;;;21.92;11.00;;;;;;;13.45;100.00;101000.94;5587789;31;34079;-70
2023/09/29 05:37:05;;;;;;;19.50;11.07;;;;;;;13.47;100.00;101006.91;5589546;31;34536;-69
2023/09/29 05:40:09;;;;;;;22.02;11.57;;;;;;;13.55;100.00;101002.56;5590154;31;33886;-68
2023/09/29 05:43:11;;;;;;;19.27;10.88;;;;;;;13.61;100.00;101001.84;5590329;31;34011;-69
2023/09/29 05:46:16;;;;;;;19.73;10.68;;;;;;;13.70;100.00;101000.84;5589651;31;33973;-69
2023/09/29 05:49:19;;;;;;;28.87;10.73;;;;;;;13.77;100.00;101002.66;5590294;31;33902;-69
2023/09/29 05:52:22;;;;;;;15.80;10.32;;;;;;;13.87;100.00;101007.75;5589705;31;33995;-69
2023/09/29 05:55:26;;;;;;;19.17;10.40;;;;;;;13.97;100.00;101015.56;5575856;31;34083;-68
2023/09/29 05:58:30;;;;;;;21.33;10.75;;;;;;;14.04;100.00;101004.00;5575687;31;35285;-69
2023/09/29 06:01:33;;;;;;;15.65;10.50;;;;;;;14.14;100.00;101011.78;5576765;31;33992;-69
2023/09/29 06:04:36;;;;;;;14.95;10.52;;;;;;;14.22;100.00;101019.75;5576500;31;34604;-70
2023/09/29 06:07:40;;;;;;;20.42;10.65;;;;;;;14.29;100.00;101018.03;5589847;31;34016;-70
2023/09/29 06:10:44;;;;;;;18.62;11.10;;;;;;;14.34;100.00;101021.84;5589783;31;34010;-68
2023/09/29 06:13:47;;;;;;;17.73;10.43;;;;;;;14.41;100.00;101022.00;5590246;31;33825;-69
2023/09/29 06:16:49;;;;;;;16.23;10.23;;;;;;;14.51;100.00;101032.47;5589639;31;34265;-69
2023/09/29 06:19:52;;;;;;;18.52;10.10;;;;;;;14.53;100.00;101022.41;5590115;31;34516;-69
2023/09/29 06:22:55;;;;;;;17.23;10.55;;;;;;;14.62;100.00;101026.72;5589757;31;34553;-69
2023/09/29 06:25:59;;;;;;;17.60;10.52;;;;;;;14.72;100.00;101030.78;5589641;31;34890;-69
2023/09/29 06:29:04;;;;;;;15.10;9.20;;;;;;;14.81;100.00;101034.25;5589906;31;33934;-69
2023/09/29 06:32:10;;;;;;;13.55;9.27;;;;;;;14.95;100.00;101032.63;5590130;31;33941;-68
2023/09/29 06:35:14;;;;;;;15.55;10.13;;;;;;;15.27;100.00;101032.31;5575992;31;34599;-69
2023/09/29 06:38:17;;;;;;;26.85;11.50;;;;;;;15.45;100.00;101035.47;5589986;31;34557;-69
2023/09/29 06:41:20;;;;;;;16.35;9.70;;;;;;;15.49;100.00;101031.41;5589581;31;34594;-69
2023/09/29 06:44:23;;;;;;;20.08;9.75;;;;;;;15.54;100.00;101034.38;5575831;31;33975;-69
2023/09/29 06:47:26;;;;;;;15.30;9.38;;;;;;;15.62;100.00;101033.47;5589182;31;34302;-70
2023/09/29 06:50:29;;;;;;;20.58;9.68;;;;;;;15.67;100.00;101035.59;5589748;31;33893;-70
2023/09/29 06:53:32;;;;;;;19.83;10.20;;;;;;;15.77;100.00;101036.16;5589692;31;34633;-70
2023/09/29 06:56:36;;;;;;;20.35;10.32;;;;;;;15.85;100.00;101034.19;5576052;31;33813;-70
2023/09/29 06:59:39;;;;;;;19.90;9.55;;;;;;;15.97;100.00;101032.72;5589803;31;34497;-69
2023/09/29 07:02:42;;;;;;;22.15;9.52;;;;;;;16.13;100.00;101041.53;5575897;31;33958;-70
2023/09/29 07:05:46;;;;;;;13.13;9.23;;;;;;;16.25;100.00;101043.56;5589977;31;33930;-70
2023/09/29 07:08:49;;;;;;;18.23;9.63;;;;;;;16.43;100.00;101057.34;5589839;31;32066;-70
2023/09/29 07:11:52;;;;;;;19.48;9.00;;;;;;;16.65;100.00;101050.19;5588888;31;35275;-70
2023/09/29 07:14:55;;;;;;;23.05;10.35;;;;;;;16.93;100.00;101053.75;5589437;31;34107;-70
2023/09/29 07:17:58;;;;;;;24.85;9.60;;;;;;;17.25;100.00;101059.56;5588858;31;34115;-70
2023/09/29 07:21:01;;;;;;;18.17;9.05;;;;;;;17.84;100.00;101060.00;5589637;31;34500;-70
2023/09/29 07:24:07;;;;;;;19.42;9.00;;;;;;;18.48;100.00;101070.38;5589502;31;33981;-70
2023/09/29 07:27:11;;;;;;;16.85;8.32;;;;;;;19.93;100.00;101061.31;5589507;31;33843;-71
2023/09/29 07:30:15;;;;;;;24.75;7.65;;;;;;;21.71;100.00;101070.91;5589758;31;33913;-71
2023/09/29 07:33:18;;;;;;;21.48;8.05;;;;;;;21.83;97.58;101073.72;5576232;31;33745;-71
2023/09/29 07:36:21;;;;;;;18.02;6.65;;;;;;;21.93;91.10;101071.31;5575747;31;33941;-71
2023/09/29 07:39:24;;;;;;;14.82;6.30;;;;;;;22.83;82.43;101081.19;5589359;31;33894;-71
2023/09/29 07:42:27;;;;;;;13.10;5.68;;;;;;;24.11;66.58;101077.66;5589218;31;34310;-71
2023/09/29 07:45:29;;;;;;;10.43;5.68;;;;;;;25.03;62.82;101079.19;5584470;31;142718;-71
2023/09/29 07:48:32;;;;;;;14.00;5.60;;;;;;;26.42;55.33;101083.66;5588985;31;34746;-70
2023/09/29 07:51:38;;;;;;;15.88;5.10;;;;;;;26.33;51.41;101080.56;5575600;31;33860;-71
2023/09/29 07:54:41;;;;;;;16.92;5.45;;;;;;;25.46;54.72;101080.44;5575712;31;33908;-70
2023/09/29 07:57:44;;;;;;;13.20;5.47;;;;;;;26.10;53.68;101078.88;5588606;31;33941;-70
2023/09/29 08:00:48;;;;;;;11.75;4.85;;;;;;;27.06;49.55;101084.59;5589407;31;33504;-70
2023/09/29 08:03:51;;;;;;;20.25;5.20;;;;;;;26.22;49.78;101084.22;5589301;31;33557;-70
2023/09/29 08:06:55;;;;;;;16.73;5.18;;;;;;;27.05;49.73;101088.37;5589369;31;34505;-70
2023/09/29 08:09:58;;;;;;;15.68;5.80;;;;;;;27.33;46.04;101081.78;5589411;31;34592;-70
2023/09/29 08:13:01;;;;;;;10.10;4.87;;;;;;;25.99;48.80;101084.47;5588945;31;33805;-70
2023/09/29 08:16:04;;;;;;;8.75;5.30;;;;;;;25.60;50.20;101078.22;5575575;31;34557;-70
2023/09/29 08:19:07;;;;;;;13.95;5.10;;;;;;;26.10;49.06;101086.22;5575487;31;34270;-71
2023/09/29 08:22:10;;;;;;;13.10;5.50;;;;;;;27.02;47.43;101087.00;5588883;31;33822;-72
2023/09/29 08:25:14;;;;;;;18.25;5.32;;;;;;;28.85;43.58;101088.81;5589234;31;33600;-71
2023/09/29 08:28:17;;;;;;;11.98;5.10;;;;;;;30.50;40.70;101075.06;5588684;31;33895;-72
2023/09/29 08:31:20;;;;;;;10.60;5.00;;;;;;;27.53;45.24;101081.97;5588718;31;33780;-70
2023/09/29 08:34:30;;;;;;;14.57;4.97;;;;;;;29.55;41.75;101078.94;5588241;31;35486;-72
2023/09/29 08:37:33;;;;;;;16.77;4.93;;;;;;;30.68;39.11;101075.50;5575210;31;34026;-71
2023/09/29 08:40:40;;;;;;;11.48;5.30;;;;;;;29.66;40.06;101081.41;5588833;31;33947;-71
2023/09/29 08:43:43;;;;;;;18.98;4.87;;;;;;;25.05;51.10;101065.38;5588840;31;34449;-71
2023/09/29 08:47:02;;;;;;;;;;;;;;;23.17;59.09;101067.94;5589204;31;33798;-71
2023/09/29 08:50:06;;;;;;;36.22;6.53;;;;;;;22.34;67.01;101071.44;5588736;31;34998;-70
2023/09/29 08:53:10;;;;;;;17.27;5.68;;;;;;;22.58;68.43;101064.25;5588520;31;33948;-71
2023/09/29 08:56:16;;;;;;;18.83;6.47;;;;;;;22.49;67.86;101057.50;5588592;31;34579;-70
2023/09/29 08:59:19;;;;;;;14.77;6.00;;;;;;;22.07;73.63;101062.81;5587986;31;34421;-71
2023/09/29 09:02:25;;;;;;;16.55;6.07;;;;;;;21.95;75.90;101058.41;5588314;31;34351;-70
2023/09/29 09:05:28;;;;;;;15.57;6.12;;;;;;;21.94;76.73;101056.75;5588452;31;34792;-70
2023/09/29 09:08:31;;;;;;;15.18;6.10;;;;;;;21.78;81.31;101060.03;5588576;31;33751;-69
2023/09/29 09:11:42;;;;;;;10.43;5.93;;;;;;;21.70;77.64;101071.94;5590390;31;33872;-70
2023/09/29 09:14:45;;;;;;;19.62;6.45;;;;;;;21.42;84.80;101061.66;5590528;31;34130;-71
2023/09/29 09:17:49;;;;;;;18.20;6.97;;;;;;;21.12;83.57;101057.94;5590335;31;33898;-70
2023/09/29 09:20:52;;;;;;;15.85;6.15;;;;;;;21.21;86.72;101064.72;5590265;31;34748;-70
2023/09/29 09:23:57;;;;;;;14.48;6.30;;;;;;;21.27;83.08;101058.47;5577031;31;34886;-71
2023/09/29 09:27:03;;;;;;;19.83;6.70;;;;;;;21.24;83.65;101048.94;5590117;31;33892;-70
2023/09/29 09:30:20;;;;;;;17.35;6.62;;;;;;;21.28;83.32;101053.91;5590106;31;33902;-70
2023/09/29 09:33:25;;;;;;;23.38;6.70;;;;;;;21.37;82.35;101056.09;5590489;31;34508;-70
2023/09/29 09:36:28;;;;;;;16.10;6.37;;;;;;;21.56;83.09;101055.06;5590474;31;33902;-70
2023/09/29 09:39:33;;;;;;;31.15;6.35;;;;;;;21.42;83.20;101053.56;5590305;31;34027;-70
2023/09/29 09:42:36;;;;;;;17.52;6.10;;;;;;;21.45;87.91;101057.66;5591916;31;33924;-69
2023/09/29 09:45:42;;;;;;;9.43;5.80;;;;;;;21.39;82.85;101048.59;5590779;31;34910;-68
2023/09/29 09:49:13;;;;;;;12.35;5.55;;;;;;;21.57;81.96;101054.03;5590295;31;33930;-71
2023/09/29 09:52:24;;;;;;;13.00;6.15;;;;;;;21.52;81.90;101050.34;5590795;31;34217;-69
2023/09/29 09:55:40;;;;;;;13.25;5.80;;;;;;;21.52;82.82;101050.34;5590278;31;33794;-73
2023/09/29 09:58:42;;;;;;;16.62;6.25;;;;;;;21.72;78.96;101039.31;5590039;31;33974;-71
2023/09/29 10:01:46;;;;;;;15.25;6.22;;;;;;;21.85;79.18;101039.16;5590280;31;33831;-71
2023/09/29 10:04:54;;;;;;;12.93;6.20;;;;;;;21.86;82.60;101038.97;5576692;31;33853;-72
2023/09/29 10:08:07;;;;;;;13.18;5.78;;;;;;;22.00;80.65;101043.19;5576210;31;33946;-72
2023/09/29 10:11:11;;;;;;;13.75;5.72;;;;;;;22.19;74.89;101037.75;5590002;31;34105;-72
2023/09/29 10:14:14;;;;;;;19.40;5.85;;;;;;;22.05;76.66;101027.13;5575914;31;34500;-70
2023/09/29 10:17:17;;;;;;;12.00;5.72;;;;;;;22.34;74.00;101021.94;5575799;31;33780;-71
2023/09/29 10:20:26;;;;;;;17.73;5.45;;;;;;;22.48;75.32;101029.63;5589613;31;33208;-72
2023/09/29 10:23:30;;;;;;;19.33;6.40;;;;;;;22.65;71.36;101029.81;5589434;31;34296;-70
2023/09/29 10:26:48;;;;;;;14.45;5.55;;;;;;;22.59;72.54;101019.91;5589517;31;34376;-72
2023/09/29 10:30:10;;;;;;;15.50;5.80;;;;;;;22.70;70.44;101019.16;5589937;31;34152;-70
2023/09/29 10:33:13;;;;;;;9.63;5.68;;;;;;;22.81;69.75;101023.75;5590142;31;33843;-71
2023/09/29 10:36:18;;;;;;;11.07;5.40;;;;;;;22.85;69.49;101014.13;5590219;31;33972;-70
2023/09/29 10:39:29;;;;;;;16.50;5.97;;;;;;;23.10;66.93;101016.63;5576295;31;34514;-70
2023/09/29 10:42:38;;;;;;;10.98;5.50;;;;;;;23.24;65.66;101006.37;5589120;31;34568;-70
2023/09/29 10:45:41;;;;;;;16.55;5.28;;;;;;;23.32;65.29;101012.28;5575822;31;33882;-70
2023/09/29 10:48:48;;;;;;;14.27;5.68;;;;;;;23.47;62.79;101003.72;5589667;31;34479;-71
2023/09/29 10:51:52;;;;;;;14.50;5.30;;;;;;;24.62;58.28;101003.56;5589917;31;34597;-71
2023/09/29 10:54:58;;;;;;;9.93;5.05;;;;;;;28.88;46.81;101003.59;5589865;31;34521;-70
2023/09/29 10:58:03;;;;;;;12.82;4.80;;;;;;;33.24;36.14;101009.50;5590076;31;33821;-71
2023/09/29 11:01:06;;;;;;;11.93;4.75;;;;;;;36.89;29.35;101007.13;5590403;31;34447;-71
2023/09/29 11:04:10;;;;;;;9.50;4.70;;;;;;;38.81;25.64;101009.31;5589901;31;33829;-72
2023/09/29 11:07:17;;;;;;;9.55;4.53;;;;;;;39.94;24.03;101008.38;5589288;31;35411;-70
2023/09/29 11:10:20;;;;;;;7.15;4.18;;;;;;;40.29;22.76;101005.91;5589328;31;34065;-71
2023/09/29 11:13:24;;;;;;;13.98;4.32;;;;;;;37.25;25.48;100983.78;5589590;31;33855;-72
2023/09/29 11:16:31;;;;;;;8.13;3.90;;;;;;;39.52;23.35;100990.34;5589360;31;33937;-71
2023/09/29 11:19:35;;;;;;;14.57;4.87;;;;;;;39.39;22.82;100983.19;5589516;31;33960;-72
2023/09/29 11:22:38;;;;;;;10.95;4.05;;;;;;;42.90;20.77;100988.34;5589435;31;34500;-72
2023/09/29 11:25:58;;;;;;;9.48;4.15;;;;;;;42.81;20.26;100981.38;5575386;31;34890;-72
2023/09/29 11:29:00;;;;;;;15.27;3.80;;;;;;;45.58;17.85;100975.38;5589239;31;33899;-71
2023/09/29 11:32:04;;;;;;;12.68;3.78;;;;;;;45.72;18.07;100978.28;5589332;31;33787;-71
2023/09/29 11:35:13;;;;;;;11.35;4.00;;;;;;;41.90;20.11;100967.16;5575601;31;33992;-71
2023/09/29 11:38:20;;;;;;;9.90;4.18;;;;;;;42.18;20.75;100955.78;5563190;31;33997;-72
2023/09/29 11:41:23;;;;;;;10.13;4.20;;;;;;;39.93;22.31;100947.62;5575256;31;33546;-72
2023/09/29 11:44:29;;;;;;;11.85;4.30;;;;;;;42.18;19.50;100948.25;5588989;31;33913;-70
2023/09/29 11:47:31;;;;;;;7.62;3.72;;;;;;;41.73;19.13;100948.87;5589238;31;33961;-72
2023/09/29 11:50:35;;;;;;;9.27;4.07;;;;;;;42.88;18.62;100942.44;5575367;31;33922;-72
2023/09/29 11:53:42;;;;;;;8.93;3.78;;;;;;;44.43;18.33;100945.94;5589199;31;33991;-72
2023/09/29 11:56:45;;;;;;;12.55;3.80;;;;;;;43.19;17.79;100946.97;5588779;31;34025;-72
2023/09/29 11:59:48;;;;;;;7.37;3.30;;;;;;;43.08;18.06;100932.03;5589310;31;33786;-73
2023/09/29 12:02:53;;;;;;;5.20;3.30;;;;;;;39.31;20.33;100934.12;5589152;31;33916;-72
2023/09/29 12:05:58;;;;;;;14.15;3.90;;;;;;;42.00;19.25;100936.72;5589350;31;33790;-72
2023/09/29 12:09:02;;;;;;;10.82;3.60;;;;;;;39.63;19.92;100933.19;5589445;31;33772;-72
2023/09/29 12:12:06;;;;;;;11.25;4.12;;;;;;;41.70;18.50;100927.28;5588810;31;34511;-72
2023/09/29 12:15:11;;;;;;;10.30;3.12;;;;;;;39.32;20.13;100919.09;5588953;31;33890;-70
2023/09/29 12:18:16;;;;;;;9.60;3.60;;;;;;;41.28;18.64;100924.31;5575604;31;34425;-73
2023/09/29 12:21:19;;;;;;;7.40;3.10;;;;;;;41.05;18.21;100912.22;5588770;31;33806;-72
2023/09/29 12:24:23;;;;;;;11.02;3.85;;;;;;;39.95;19.24;100915.53;5588881;31;34992;-72
2023/09/29 12:27:26;;;;;;;9.65;3.70;;;;;;;41.52;18.75;100903.81;5588973;31;34655;-72
2023/09/29 12:30:30;;;;;;;8.20;3.67;;;;;;;43.61;17.32;100910.53;5575427;31;33875;-70
2023/09/29 12:33:33;;;;;;;7.95;3.75;;;;;;;44.28;16.25;100903.00;5588910;31;33825;-71
2023/09/29 12:36:36;;;;;;;9.30;3.70;;;;;;;44.14;16.45;100903.62;5588771;31;34507;-72
2023/09/29 12:39:39;;;;;;;10.70;4.07;;;;;;;40.51;19.46;100884.16;5588689;31;33812;-72
2023/09/29 12:42:50;;;;;;;8.63;3.85;;;;;;;39.65;20.08;100885.63;5574939;31;34592;-72
2023/09/29 12:45:54;;;;;;;14.63;4.12;;;;;;;40.43;19.57;100882.34;5587733;31;34603;-71
2023/09/29 12:48:58;;;;;;;8.63;4.10;;;;;;;42.04;18.71;100878.25;5588634;31;34508;-72
2023/09/29 12:52:00;;;;;;;11.77;4.00;;;;;;;42.76;17.74;100886.81;5588473;31;34552;-73
2023/09/29 12:55:06;;;;;;;8.95;4.47;;;;;;;39.09;20.39;100869.59;5588644;31;34473;-72
2023/09/29 12:58:09;;;;;;;6.55;4.10;;;;;;;39.13;20.86;100870.50;5588352;31;34184;-71
2023/09/29 13:01:12;;;;;;;10.27;3.90;;;;;;;38.45;20.50;100874.13;5588835;31;34537;-70
2023/09/29 13:04:15;;;;;;;16.45;4.55;;;;;;;34.15;24.78;100867.19;5588527;31;33931;-71
2023/09/29 13:07:19;;;;;;;11.02;4.10;;;;;;;32.56;26.77;100848.00;5588151;31;33880;-71
2023/09/29 13:10:22;;;;;;;13.18;4.30;;;;;;;30.31;29.79;100849.56;5574424;31;33804;-71
2023/09/29 13:13:26;;;;;;;9.30;4.05;;;;;;;28.86;32.39;100842.69;5588399;31;34495;-71
2023/09/29 13:16:28;;;;;;;11.77;4.10;;;;;;;28.77;31.35;100838.91;5587838;31;33913;-71
2023/09/29 13:19:32;;;;;;;11.18;4.50;;;;;;;28.33;31.49;100838.66;5587763;31;32326;-71
2023/09/29 13:22:34;;;;;;;10.50;4.12;;;;;;;27.54;33.43;100832.88;5587759;31;33896;-71
2023/09/29 13:25:38;;;;;;;8.57;4.40;;;;;;;28.21;31.15;100834.59;5587645;31;33934;-71
2023/09/29 13:28:40;;;;;;;10.77;4.57;;;;;;;27.65;32.49;100831.78;5587715;31;34567;-70
2023/09/29 13:31:44;;;;;;;19.67;4.85;;;;;;;27.71;34.12;100833.44;5587562;31;34588;-71
2023/09/29 13:34:46;;;;;;;9.45;4.57;;;;;;;27.54;36.00;100833.69;5574042;31;34539;-71
2023/09/29 13:37:50;;;;;;;12.90;4.85;;;;;;;27.48;33.15;100823.00;5573634;31;33948;-70
2023/09/29 13:40:53;;;;;;;9.55;4.40;;;;;;;27.46;32.58;100825.97;5587091;31;34917;-71
2023/09/29 13:43:56;;;;;;;16.23;4.57;;;;;;;27.59;33.47;100828.22;5586818;31;34773;-69
2023/09/29 13:46:59;;;;;;;9.85;4.15;;;;;;;27.71;32.13;100825.25;5586865;31;33960;-71
2023/09/29 13:50:11;;;;;;;12.23;4.20;;;;;;;27.01;32.93;100829.38;5587113;31;34976;-70
2023/09/29 13:53:14;;;;;;;9.68;4.18;;;;;;;26.99;35.07;100815.19;5587081;31;33808;-70
2023/09/29 13:56:19;;;;;;;9.48;4.60;;;;;;;27.18;34.76;100824.53;5587085;31;33973;-71
2023/09/29 13:59:21;;;;;;;14.65;4.10;;;;;;;27.73;31.31;100822.25;5589755;31;35006;-70
2023/09/29 14:02:24;;;;;;;7.20;3.62;;;;;;;27.27;34.62;100819.38;5589536;31;33944;-70